sensor_id;sensor_type;location;lat;lon;timestamp;temperature;humidity
6379;DHT22;3222;48.858;10.128;2024-03-02T00:00:13;6.90;99.90
6379;DHT22;3222;48.858;10.128;2024-03-02T00:02:46;6.90;99.90
6379;DHT22;3222;48.858;10.128;2024-03-02T00:05:13;7.00;99.90
6379;DHT22;3222;48.858;10.128;2024-03-02T00:07:44;7.10;99.90
6379;DHT22;3222;48.858;10.128;2024-03-02T00:10:13;7.10;99.90
6379;DHT22;3222;48.858;10.128;2024-03-02T00:12:40;7.10;99.90
6379;DHT22;3222;48.858;10.128;2024-03-02T00:18:01;7.10;99.90
6379;DHT22;3222;48.858;10.128;2024-03-02T00:20:27;7.00;99.90
6379;DHT22;3222;48.858;10.128;2024-03-02T00:23:03;7.00;99.90
6379;DHT22;3222;48.858;10.128;2024-03-02T00:25:44;7.00;99.90
6379;DHT22;3222;48.858;10.128;2024-03-02T00:28:27;7.00;99.90
6379;DHT22;3222;48.858;10.128;2024-03-02T00:31:06;6.90;99.90
6379;DHT22;3222;48.858;10.128;2024-03-02T00:33:39;6.90;99.90
6379;DHT22;3222;48.858;10.128;2024-03-02T00:36:06;6.90;99.90
6379;DHT22;3222;48.858;10.128;2024-03-02T00:38:33;7.00;99.90
6379;DHT22;3222;48.858;10.128;2024-03-02T00:41:04;6.90;99.90
6379;DHT22;3222;48.858;10.128;2024-03-02T00:43:55;6.90;99.90
6379;DHT22;3222;48.858;10.128;2024-03-02T00:46:22;6.80;99.90
6379;DHT22;3222;48.858;10.128;2024-03-02T00:48:58;6.80;99.90
6379;DHT22;3222;48.858;10.128;2024-03-02T00:51:25;6.70;99.90
6379;DHT22;3222;48.858;10.128;2024-03-02T00:53:53;6.70;99.90
6379;DHT22;3222;48.858;10.128;2024-03-02T00:56:22;6.70;99.90
6379;DHT22;3222;48.858;10.128;2024-03-02T00:58:48;6.60;99.90
6379;DHT22;3222;48.858;10.128;2024-03-02T01:01:14;6.60;99.90
6379;DHT22;3222;48.858;10.128;2024-03-02T01:03:42;6.60;99.90
6379;DHT22;3222;48.858;10.128;2024-03-02T01:06:08;6.60;99.90
6379;DHT22;3222;48.858;10.128;2024-03-02T01:08:34;6.50;99.90
6379;DHT22;3222;48.858;10.128;2024-03-02T01:11:00;6.60;99.90
6379;DHT22;3222;48.858;10.128;2024-03-02T01:13:26;6.70;99.90
6379;DHT22;3222;48.858;10.128;2024-03-02T01:15:52;6.60;99.90
6379;DHT22;3222;48.858;10.128;2024-03-02T01:18:18;6.70;99.90
6379;DHT22;3222;48.858;10.128;2024-03-02T01:20:44;6.70;99.90
6379;DHT22;3222;48.858;10.128;2024-03-02T01:23:11;6.70;99.90
6379;DHT22;3222;48.858;10.128;2024-03-02T01:25:36;6.70;99.90
6379;DHT22;3222;48.858;10.128;2024-03-02T01:28:03;6.60;99.90
6379;DHT22;3222;48.858;10.128;2024-03-02T01:30:28;6.50;99.90
6379;DHT22;3222;48.858;10.128;2024-03-02T01:32:54;6.40;99.90
6379;DHT22;3222;48.858;10.128;2024-03-02T01:35:20;6.40;99.90
6379;DHT22;3222;48.858;10.128;2024-03-02T01:37:45;6.40;99.90
6379;DHT22;3222;48.858;10.128;2024-03-02T01:40:11;6.60;99.90
6379;DHT22;3222;48.858;10.128;2024-03-02T01:42:38;6.80;99.90
6379;DHT22;3222;48.858;10.128;2024-03-02T01:45:08;6.90;99.90
6379;DHT22;3222;48.858;10.128;2024-03-02T01:47:34;6.90;99.90
6379;DHT22;3222;48.858;10.128;2024-03-02T01:50:00;6.80;99.90
6379;DHT22;3222;48.858;10.128;2024-03-02T01:52:26;6.90;99.90
6379;DHT22;3222;48.858;10.128;2024-03-02T01:54:52;6.90;99.90
6379;DHT22;3222;48.858;10.128;2024-03-02T01:57:18;6.90;99.90
6379;DHT22;3222;48.858;10.128;2024-03-02T01:59:45;6.90;99.90
6379;DHT22;3222;48.858;10.128;2024-03-02T02:02:14;7.00;99.90
6379;DHT22;3222;48.858;10.128;2024-03-02T02:04:39;6.80;99.90
6379;DHT22;3222;48.858;10.128;2024-03-02T02:07:05;6.90;99.90
6379;DHT22;3222;48.858;10.128;2024-03-02T02:09:32;6.70;99.90
6379;DHT22;3222;48.858;10.128;2024-03-02T02:11:58;6.50;99.90
6379;DHT22;3222;48.858;10.128;2024-03-02T02:14:24;6.50;99.90
6379;DHT22;3222;48.858;10.128;2024-03-02T02:16:49;6.50;99.90
6379;DHT22;3222;48.858;10.128;2024-03-02T02:19:15;6.70;99.90
6379;DHT22;3222;48.858;10.128;2024-03-02T02:21:44;6.90;99.90
6379;DHT22;3222;48.858;10.128;2024-03-02T02:24:09;6.70;99.90
6379;DHT22;3222;48.858;10.128;2024-03-02T02:26:35;6.60;99.90
6379;DHT22;3222;48.858;10.128;2024-03-02T02:29:01;6.70;99.90
6379;DHT22;3222;48.858;10.128;2024-03-02T02:31:36;6.60;99.90
6379;DHT22;3222;48.858;10.128;2024-03-02T02:34:01;6.60;99.90
6379;DHT22;3222;48.858;10.128;2024-03-02T02:36:27;6.70;99.90
6379;DHT22;3222;48.858;10.128;2024-03-02T02:38:53;6.60;99.90
6379;DHT22;3222;48.858;10.128;2024-03-02T02:41:18;6.50;99.90
6379;DHT22;3222;48.858;10.128;2024-03-02T02:43:44;6.50;99.90
6379;DHT22;3222;48.858;10.128;2024-03-02T02:46:09;6.40;99.90
6379;DHT22;3222;48.858;10.128;2024-03-02T02:48:35;6.50;99.90
6379;DHT22;3222;48.858;10.128;2024-03-02T02:51:01;6.60;99.90
6379;DHT22;3222;48.858;10.128;2024-03-02T02:53:27;6.60;99.90
6379;DHT22;3222;48.858;10.128;2024-03-02T02:55:53;6.70;99.90
6379;DHT22;3222;48.858;10.128;2024-03-02T02:58:18;6.60;99.90
6379;DHT22;3222;48.858;10.128;2024-03-02T03:00:44;6.60;99.90
6379;DHT22;3222;48.858;10.128;2024-03-02T03:03:10;6.60;99.90
6379;DHT22;3222;48.858;10.128;2024-03-02T03:05:35;6.70;99.90
6379;DHT22;3222;48.858;10.128;2024-03-02T03:08:01;6.70;99.90
6379;DHT22;3222;48.858;10.128;2024-03-02T03:10:27;6.60;99.90
6379;DHT22;3222;48.858;10.128;2024-03-02T03:12:53;6.50;99.90
6379;DHT22;3222;48.858;10.128;2024-03-02T03:15:21;6.70;99.90
6379;DHT22;3222;48.858;10.128;2024-03-02T03:17:47;6.70;99.90
6379;DHT22;3222;48.858;10.128;2024-03-02T03:20:13;6.80;99.90
6379;DHT22;3222;48.858;10.128;2024-03-02T03:22:39;6.70;99.90
6379;DHT22;3222;48.858;10.128;2024-03-02T03:25:05;6.60;99.90
6379;DHT22;3222;48.858;10.128;2024-03-02T03:27:33;6.60;99.90
6379;DHT22;3222;48.858;10.128;2024-03-02T03:29:59;6.50;99.90
6379;DHT22;3222;48.858;10.128;2024-03-02T03:32:25;6.70;99.90
6379;DHT22;3222;48.858;10.128;2024-03-02T03:34:50;6.60;99.90
6379;DHT22;3222;48.858;10.128;2024-03-02T03:37:16;6.60;99.90
6379;DHT22;3222;48.858;10.128;2024-03-02T03:39:42;6.60;99.90
6379;DHT22;3222;48.858;10.128;2024-03-02T03:42:07;6.80;99.90
6379;DHT22;3222;48.858;10.128;2024-03-02T03:44:33;6.70;99.90
6379;DHT22;3222;48.858;10.128;2024-03-02T03:46:59;6.60;99.90
6379;DHT22;3222;48.858;10.128;2024-03-02T03:49:27;6.70;99.90
6379;DHT22;3222;48.858;10.128;2024-03-02T03:51:53;6.60;99.90
6379;DHT22;3222;48.858;10.128;2024-03-02T03:54:18;6.60;99.90
6379;DHT22;3222;48.858;10.128;2024-03-02T03:56:44;6.50;99.90
6379;DHT22;3222;48.858;10.128;2024-03-02T03:59:10;6.50;99.90
6379;DHT22;3222;48.858;10.128;2024-03-02T04:01:35;6.50;99.90
6379;DHT22;3222;48.858;10.128;2024-03-02T04:04:01;6.60;99.90
6379;DHT22;3222;48.858;10.128;2024-03-02T04:06:30;6.70;99.90
6379;DHT22;3222;48.858;10.128;2024-03-02T04:08:55;6.70;99.90
6379;DHT22;3222;48.858;10.128;2024-03-02T04:11:21;6.70;99.90
6379;DHT22;3222;48.858;10.128;2024-03-02T04:13:47;6.50;99.90
6379;DHT22;3222;48.858;10.128;2024-03-02T04:16:13;6.40;99.90
6379;DHT22;3222;48.858;10.128;2024-03-02T04:18:38;6.30;99.90
6379;DHT22;3222;48.858;10.128;2024-03-02T04:21:05;6.30;99.90
6379;DHT22;3222;48.858;10.128;2024-03-02T04:23:30;6.30;99.90
6379;DHT22;3222;48.858;10.128;2024-03-02T04:25:56;6.20;99.90
6379;DHT22;3222;48.858;10.128;2024-03-02T04:28:22;6.20;99.90
6379;DHT22;3222;48.858;10.128;2024-03-02T04:30:47;6.20;99.90
6379;DHT22;3222;48.858;10.128;2024-03-02T04:33:13;6.30;99.90
6379;DHT22;3222;48.858;10.128;2024-03-02T04:35:39;6.30;99.90
6379;DHT22;3222;48.858;10.128;2024-03-02T04:38:04;6.50;99.90
6379;DHT22;3222;48.858;10.128;2024-03-02T04:40:30;6.70;99.90
6379;DHT22;3222;48.858;10.128;2024-03-02T04:42:56;6.80;99.90
6379;DHT22;3222;48.858;10.128;2024-03-02T04:45:21;6.80;99.90
6379;DHT22;3222;48.858;10.128;2024-03-02T04:47:47;6.70;99.90
6379;DHT22;3222;48.858;10.128;2024-03-02T04:50:13;6.70;99.90
6379;DHT22;3222;48.858;10.128;2024-03-02T04:52:38;6.70;99.90
6379;DHT22;3222;48.858;10.128;2024-03-02T04:55:04;6.60;99.90
6379;DHT22;3222;48.858;10.128;2024-03-02T04:57:55;6.60;99.90
6379;DHT22;3222;48.858;10.128;2024-03-02T05:00:21;6.60;99.90
6379;DHT22;3222;48.858;10.128;2024-03-02T05:02:47;6.60;99.90
6379;DHT22;3222;48.858;10.128;2024-03-02T05:05:13;6.60;99.90
6379;DHT22;3222;48.858;10.128;2024-03-02T05:07:41;6.60;99.90
6379;DHT22;3222;48.858;10.128;2024-03-02T05:10:08;6.60;99.90
6379;DHT22;3222;48.858;10.128;2024-03-02T05:12:35;6.60;99.90
6379;DHT22;3222;48.858;10.128;2024-03-02T05:15:13;6.50;99.90
6379;DHT22;3222;48.858;10.128;2024-03-02T05:17:40;6.50;99.90
6379;DHT22;3222;48.858;10.128;2024-03-02T05:20:07;6.50;99.90
6379;DHT22;3222;48.858;10.128;2024-03-02T05:22:34;6.40;99.90
6379;DHT22;3222;48.858;10.128;2024-03-02T05:25:00;6.50;99.90
6379;DHT22;3222;48.858;10.128;2024-03-02T05:27:27;6.40;99.90
6379;DHT22;3222;48.858;10.128;2024-03-02T05:29:52;6.40;99.90
6379;DHT22;3222;48.858;10.128;2024-03-02T05:32:18;6.40;99.90
6379;DHT22;3222;48.858;10.128;2024-03-02T05:34:44;6.30;99.90
6379;DHT22;3222;48.858;10.128;2024-03-02T05:37:09;6.30;99.90
6379;DHT22;3222;48.858;10.128;2024-03-02T05:39:35;6.30;99.90
6379;DHT22;3222;48.858;10.128;2024-03-02T05:42:01;6.30;99.90
6379;DHT22;3222;48.858;10.128;2024-03-02T05:44:27;6.30;99.90
6379;DHT22;3222;48.858;10.128;2024-03-02T05:46:52;6.30;99.90
6379;DHT22;3222;48.858;10.128;2024-03-02T05:49:18;6.40;99.90
6379;DHT22;3222;48.858;10.128;2024-03-02T05:51:43;6.40;99.90
6379;DHT22;3222;48.858;10.128;2024-03-02T05:54:09;6.40;99.90
6379;DHT22;3222;48.858;10.128;2024-03-02T05:56:35;6.30;99.90
6379;DHT22;3222;48.858;10.128;2024-03-02T05:59:01;6.40;99.90
6379;DHT22;3222;48.858;10.128;2024-03-02T06:01:43;6.60;99.90
6379;DHT22;3222;48.858;10.128;2024-03-02T06:04:09;6.50;99.90
6379;DHT22;3222;48.858;10.128;2024-03-02T06:06:36;6.40;99.90
6379;DHT22;3222;48.858;10.128;2024-03-02T06:09:03;6.40;99.90
6379;DHT22;3222;48.858;10.128;2024-03-02T06:11:36;6.50;99.90
6379;DHT22;3222;48.858;10.128;2024-03-02T06:14:03;6.50;99.90
6379;DHT22;3222;48.858;10.128;2024-03-02T06:16:29;6.40;99.90
6379;DHT22;3222;48.858;10.128;2024-03-02T06:18:55;6.50;99.90
6379;DHT22;3222;48.858;10.128;2024-03-02T06:21:23;6.50;99.90
6379;DHT22;3222;48.858;10.128;2024-03-02T06:23:49;6.40;99.90
6379;DHT22;3222;48.858;10.128;2024-03-02T06:26:15;6.40;99.90
6379;DHT22;3222;48.858;10.128;2024-03-02T06:28:41;6.30;99.90
6379;DHT22;3222;48.858;10.128;2024-03-02T06:31:07;6.30;99.90
6379;DHT22;3222;48.858;10.128;2024-03-02T06:33:32;6.30;99.90
6379;DHT22;3222;48.858;10.128;2024-03-02T06:35:58;6.30;99.90
6379;DHT22;3222;48.858;10.128;2024-03-02T06:38:24;6.30;99.90
6379;DHT22;3222;48.858;10.128;2024-03-02T06:40:49;6.30;99.90
6379;DHT22;3222;48.858;10.128;2024-03-02T06:43:15;6.40;99.90
6379;DHT22;3222;48.858;10.128;2024-03-02T06:45:41;6.40;99.90
6379;DHT22;3222;48.858;10.128;2024-03-02T06:48:07;6.40;99.90
6379;DHT22;3222;48.858;10.128;2024-03-02T06:50:33;6.50;99.90
6379;DHT22;3222;48.858;10.128;2024-03-02T06:52:58;6.40;99.90
6379;DHT22;3222;48.858;10.128;2024-03-02T06:55:24;6.40;99.90
6379;DHT22;3222;48.858;10.128;2024-03-02T06:57:50;6.50;99.90
6379;DHT22;3222;48.858;10.128;2024-03-02T07:00:17;6.50;99.90
6379;DHT22;3222;48.858;10.128;2024-03-02T07:02:44;6.40;99.90
6379;DHT22;3222;48.858;10.128;2024-03-02T07:05:10;6.40;99.90
6379;DHT22;3222;48.858;10.128;2024-03-02T07:07:36;6.50;99.90
6379;DHT22;3222;48.858;10.128;2024-03-02T07:10:05;6.50;99.90
6379;DHT22;3222;48.858;10.128;2024-03-02T07:12:33;6.50;99.90
6379;DHT22;3222;48.858;10.128;2024-03-02T07:14:58;6.60;99.90
6379;DHT22;3222;48.858;10.128;2024-03-02T07:17:33;6.50;99.90
6379;DHT22;3222;48.858;10.128;2024-03-02T07:19:59;6.50;99.90
6379;DHT22;3222;48.858;10.128;2024-03-02T07:22:25;6.60;99.90
6379;DHT22;3222;48.858;10.128;2024-03-02T07:24:50;6.60;99.90
6379;DHT22;3222;48.858;10.128;2024-03-02T07:27:17;6.60;99.90
6379;DHT22;3222;48.858;10.128;2024-03-02T07:29:43;6.70;99.90
6379;DHT22;3222;48.858;10.128;2024-03-02T07:32:10;6.60;99.90
6379;DHT22;3222;48.858;10.128;2024-03-02T07:34:36;6.60;99.90
6379;DHT22;3222;48.858;10.128;2024-03-02T07:37:03;6.60;99.90
6379;DHT22;3222;48.858;10.128;2024-03-02T07:39:29;6.70;99.90
6379;DHT22;3222;48.858;10.128;2024-03-02T07:41:55;6.80;99.90
6379;DHT22;3222;48.858;10.128;2024-03-02T07:44:21;6.90;99.90
6379;DHT22;3222;48.858;10.128;2024-03-02T07:46:48;6.90;99.90
6379;DHT22;3222;48.858;10.128;2024-03-02T07:49:15;6.90;99.90
6379;DHT22;3222;48.858;10.128;2024-03-02T07:51:42;6.90;99.90
6379;DHT22;3222;48.858;10.128;2024-03-02T07:54:08;6.90;99.90
6379;DHT22;3222;48.858;10.128;2024-03-02T07:56:34;7.00;99.90
6379;DHT22;3222;48.858;10.128;2024-03-02T07:59:01;7.10;99.90
6379;DHT22;3222;48.858;10.128;2024-03-02T08:01:28;7.00;99.90
6379;DHT22;3222;48.858;10.128;2024-03-02T08:03:58;7.10;99.90
6379;DHT22;3222;48.858;10.128;2024-03-02T08:06:25;7.10;99.90
6379;DHT22;3222;48.858;10.128;2024-03-02T08:09:02;7.10;99.90
6379;DHT22;3222;48.858;10.128;2024-03-02T08:11:30;7.30;99.90
6379;DHT22;3222;48.858;10.128;2024-03-02T08:13:56;7.30;99.90
6379;DHT22;3222;48.858;10.128;2024-03-02T08:16:25;7.40;99.90
6379;DHT22;3222;48.858;10.128;2024-03-02T08:18:51;7.40;99.90
6379;DHT22;3222;48.858;10.128;2024-03-02T08:21:17;7.50;99.90
6379;DHT22;3222;48.858;10.128;2024-03-02T08:23:43;7.50;99.90
6379;DHT22;3222;48.858;10.128;2024-03-02T08:26:10;7.50;99.90
6379;DHT22;3222;48.858;10.128;2024-03-02T08:28:36;7.50;99.90
6379;DHT22;3222;48.858;10.128;2024-03-02T08:31:03;7.50;99.90
6379;DHT22;3222;48.858;10.128;2024-03-02T08:33:29;7.50;99.90
6379;DHT22;3222;48.858;10.128;2024-03-02T08:35:55;7.60;99.90
6379;DHT22;3222;48.858;10.128;2024-03-02T08:38:21;7.60;99.90
6379;DHT22;3222;48.858;10.128;2024-03-02T08:40:47;7.60;99.90
6379;DHT22;3222;48.858;10.128;2024-03-02T08:43:13;7.70;99.90
6379;DHT22;3222;48.858;10.128;2024-03-02T08:45:39;7.70;99.90
6379;DHT22;3222;48.858;10.128;2024-03-02T08:48:07;7.80;99.90
6379;DHT22;3222;48.858;10.128;2024-03-02T08:50:34;7.80;99.90
6379;DHT22;3222;48.858;10.128;2024-03-02T08:53:00;7.80;99.90
6379;DHT22;3222;48.858;10.128;2024-03-02T08:55:25;7.80;99.90
6379;DHT22;3222;48.858;10.128;2024-03-02T08:57:51;7.90;99.90
6379;DHT22;3222;48.858;10.128;2024-03-02T09:00:17;7.80;99.90
6379;DHT22;3222;48.858;10.128;2024-03-02T09:02:46;7.70;99.90
6379;DHT22;3222;48.858;10.128;2024-03-02T09:05:12;7.80;99.90
6379;DHT22;3222;48.858;10.128;2024-03-02T09:07:37;7.80;99.90
6379;DHT22;3222;48.858;10.128;2024-03-02T09:10:05;7.70;99.90
6379;DHT22;3222;48.858;10.128;2024-03-02T09:12:32;7.80;99.90
6379;DHT22;3222;48.858;10.128;2024-03-02T09:14:58;7.90;99.90
6379;DHT22;3222;48.858;10.128;2024-03-02T09:17:24;7.80;99.90
6379;DHT22;3222;48.858;10.128;2024-03-02T09:19:49;8.00;99.90
6379;DHT22;3222;48.858;10.128;2024-03-02T09:22:18;8.00;99.90
6379;DHT22;3222;48.858;10.128;2024-03-02T09:24:44;8.00;99.90
6379;DHT22;3222;48.858;10.128;2024-03-02T09:27:10;8.10;99.90
6379;DHT22;3222;48.858;10.128;2024-03-02T09:29:36;8.10;99.90
6379;DHT22;3222;48.858;10.128;2024-03-02T09:32:01;8.20;99.90
6379;DHT22;3222;48.858;10.128;2024-03-02T09:34:27;8.20;99.90
6379;DHT22;3222;48.858;10.128;2024-03-02T09:36:53;8.40;99.90
6379;DHT22;3222;48.858;10.128;2024-03-02T09:39:19;8.50;99.90
6379;DHT22;3222;48.858;10.128;2024-03-02T09:41:44;8.60;99.90
6379;DHT22;3222;48.858;10.128;2024-03-02T09:44:10;8.70;99.90
6379;DHT22;3222;48.858;10.128;2024-03-02T09:46:36;8.80;99.90
6379;DHT22;3222;48.858;10.128;2024-03-02T09:49:02;8.80;99.90
6379;DHT22;3222;48.858;10.128;2024-03-02T09:51:28;8.90;99.90
6379;DHT22;3222;48.858;10.128;2024-03-02T09:53:55;9.10;99.90
6379;DHT22;3222;48.858;10.128;2024-03-02T09:56:21;9.20;99.90
6379;DHT22;3222;48.858;10.128;2024-03-02T09:58:47;9.30;99.90
6379;DHT22;3222;48.858;10.128;2024-03-02T10:01:13;9.40;99.90
6379;DHT22;3222;48.858;10.128;2024-03-02T10:03:39;9.40;99.90
6379;DHT22;3222;48.858;10.128;2024-03-02T10:06:25;9.50;99.90
6379;DHT22;3222;48.858;10.128;2024-03-02T10:08:51;9.60;99.90
6379;DHT22;3222;48.858;10.128;2024-03-02T10:16:36;10.00;99.90
6379;DHT22;3222;48.858;10.128;2024-03-02T10:19:21;10.10;99.90
6379;DHT22;3222;48.858;10.128;2024-03-02T10:21:48;10.20;99.90
6379;DHT22;3222;48.858;10.128;2024-03-02T10:24:15;10.30;99.90
6379;DHT22;3222;48.858;10.128;2024-03-02T10:26:41;10.30;99.90
6379;DHT22;3222;48.858;10.128;2024-03-02T10:29:10;10.30;99.90
6379;DHT22;3222;48.858;10.128;2024-03-02T10:31:41;10.30;99.90
6379;DHT22;3222;48.858;10.128;2024-03-02T10:34:07;10.40;99.90
6379;DHT22;3222;48.858;10.128;2024-03-02T10:36:34;10.40;99.90
6379;DHT22;3222;48.858;10.128;2024-03-02T10:39:06;10.40;99.90
6379;DHT22;3222;48.858;10.128;2024-03-02T10:41:33;10.50;99.90
6379;DHT22;3222;48.858;10.128;2024-03-02T10:44:08;10.50;99.90
6379;DHT22;3222;48.858;10.128;2024-03-02T10:46:36;10.60;99.90
6379;DHT22;3222;48.858;10.128;2024-03-02T10:49:04;10.60;99.90
6379;DHT22;3222;48.858;10.128;2024-03-02T10:51:32;10.70;99.90
6379;DHT22;3222;48.858;10.128;2024-03-02T10:53:59;10.70;99.90
6379;DHT22;3222;48.858;10.128;2024-03-02T11:01:48;10.70;99.90
6379;DHT22;3222;48.858;10.128;2024-03-02T11:04:18;10.80;99.90
6379;DHT22;3222;48.858;10.128;2024-03-02T11:07:00;10.80;99.90
6379;DHT22;3222;48.858;10.128;2024-03-02T11:09:28;10.90;99.90
6379;DHT22;3222;48.858;10.128;2024-03-02T11:12:13;11.00;99.90
6379;DHT22;3222;48.858;10.128;2024-03-02T11:14:41;11.00;99.90
6379;DHT22;3222;48.858;10.128;2024-03-02T11:17:11;11.00;99.90
6379;DHT22;3222;48.858;10.128;2024-03-02T11:19:40;11.00;99.90
6379;DHT22;3222;48.858;10.128;2024-03-02T11:22:07;11.00;99.90
6379;DHT22;3222;48.858;10.128;2024-03-02T11:24:33;11.00;99.90
6379;DHT22;3222;48.858;10.128;2024-03-02T11:27:03;11.00;99.90
6379;DHT22;3222;48.858;10.128;2024-03-02T11:32:05;11.10;99.90
6379;DHT22;3222;48.858;10.128;2024-03-02T11:34:35;11.10;99.90
6379;DHT22;3222;48.858;10.128;2024-03-02T11:37:02;11.10;99.90
6379;DHT22;3222;48.858;10.128;2024-03-02T11:39:28;11.10;99.90
6379;DHT22;3222;48.858;10.128;2024-03-02T11:41:57;11.10;99.90
6379;DHT22;3222;48.858;10.128;2024-03-02T11:44:29;11.10;99.90
6379;DHT22;3222;48.858;10.128;2024-03-02T11:46:59;11.00;99.90
6379;DHT22;3222;48.858;10.128;2024-03-02T11:49:45;11.00;99.90
6379;DHT22;3222;48.858;10.128;2024-03-02T11:52:13;11.10;99.90
6379;DHT22;3222;48.858;10.128;2024-03-02T11:54:41;11.20;99.90
6379;DHT22;3222;48.858;10.128;2024-03-02T11:57:12;11.30;99.90
6379;DHT22;3222;48.858;10.128;2024-03-02T11:59:39;11.30;99.90
6379;DHT22;3222;48.858;10.128;2024-03-02T12:02:05;11.60;99.90
6379;DHT22;3222;48.858;10.128;2024-03-02T12:04:31;11.60;99.90
6379;DHT22;3222;48.858;10.128;2024-03-02T12:07:00;11.70;99.90
6379;DHT22;3222;48.858;10.128;2024-03-02T12:09:29;11.80;99.90
6379;DHT22;3222;48.858;10.128;2024-03-02T12:12:10;11.90;99.90
6379;DHT22;3222;48.858;10.128;2024-03-02T12:14:38;12.00;99.90
6379;DHT22;3222;48.858;10.128;2024-03-02T12:17:05;12.00;99.90
6379;DHT22;3222;48.858;10.128;2024-03-02T12:19:31;12.10;99.90
6379;DHT22;3222;48.858;10.128;2024-03-02T12:21:57;12.20;99.90
6379;DHT22;3222;48.858;10.128;2024-03-02T12:24:26;12.20;99.90
6379;DHT22;3222;48.858;10.128;2024-03-02T12:26:52;12.20;99.90
6379;DHT22;3222;48.858;10.128;2024-03-02T12:29:19;12.30;99.90
6379;DHT22;3222;48.858;10.128;2024-03-02T12:31:51;12.30;99.90
6379;DHT22;3222;48.858;10.128;2024-03-02T12:34:18;12.30;99.90
6379;DHT22;3222;48.858;10.128;2024-03-02T12:36:45;12.40;99.90
6379;DHT22;3222;48.858;10.128;2024-03-02T12:39:13;12.40;99.90
6379;DHT22;3222;48.858;10.128;2024-03-02T12:41:41;12.40;99.90
6379;DHT22;3222;48.858;10.128;2024-03-02T12:44:07;12.50;99.90
6379;DHT22;3222;48.858;10.128;2024-03-02T12:46:33;12.50;99.90
6379;DHT22;3222;48.858;10.128;2024-03-02T12:49:07;12.60;99.90
6379;DHT22;3222;48.858;10.128;2024-03-02T12:51:33;12.60;99.90
6379;DHT22;3222;48.858;10.128;2024-03-02T12:53:58;12.70;99.90
6379;DHT22;3222;48.858;10.128;2024-03-02T12:56:25;12.80;99.90
6379;DHT22;3222;48.858;10.128;2024-03-02T12:58:54;12.80;99.90
6379;DHT22;3222;48.858;10.128;2024-03-02T13:01:20;12.80;99.90
6379;DHT22;3222;48.858;10.128;2024-03-02T13:03:51;12.90;99.90
6379;DHT22;3222;48.858;10.128;2024-03-02T13:06:17;12.90;99.90
6379;DHT22;3222;48.858;10.128;2024-03-02T13:08:45;13.00;99.90
6379;DHT22;3222;48.858;10.128;2024-03-02T13:11:11;13.00;99.90
6379;DHT22;3222;48.858;10.128;2024-03-02T13:13:36;13.00;99.90
6379;DHT22;3222;48.858;10.128;2024-03-02T13:16:07;13.00;99.90
6379;DHT22;3222;48.858;10.128;2024-03-02T13:18:33;13.10;99.90
6379;DHT22;3222;48.858;10.128;2024-03-02T13:20:59;13.10;99.90
6379;DHT22;3222;48.858;10.128;2024-03-02T13:23:25;13.00;99.90
6379;DHT22;3222;48.858;10.128;2024-03-02T13:25:50;13.10;99.90
6379;DHT22;3222;48.858;10.128;2024-03-02T13:28:16;13.10;99.90
6379;DHT22;3222;48.858;10.128;2024-03-02T13:30:43;13.10;99.90
6379;DHT22;3222;48.858;10.128;2024-03-02T13:33:08;13.10;99.90
6379;DHT22;3222;48.858;10.128;2024-03-02T13:35:34;13.10;99.90
6379;DHT22;3222;48.858;10.128;2024-03-02T13:38:00;13.10;99.90
6379;DHT22;3222;48.858;10.128;2024-03-02T13:40:25;13.10;99.90
6379;DHT22;3222;48.858;10.128;2024-03-02T13:42:51;13.20;99.90
6379;DHT22;3222;48.858;10.128;2024-03-02T13:45:19;13.20;99.90
6379;DHT22;3222;48.858;10.128;2024-03-02T13:47:45;13.20;99.90
6379;DHT22;3222;48.858;10.128;2024-03-02T13:50:10;13.30;99.90
6379;DHT22;3222;48.858;10.128;2024-03-02T13:52:36;13.40;99.90
6379;DHT22;3222;48.858;10.128;2024-03-02T13:55:02;13.40;99.90
6379;DHT22;3222;48.858;10.128;2024-03-02T13:57:28;13.40;99.90
6379;DHT22;3222;48.858;10.128;2024-03-02T13:59:54;13.50;99.90
6379;DHT22;3222;48.858;10.128;2024-03-02T14:02:20;13.50;99.90
6379;DHT22;3222;48.858;10.128;2024-03-02T14:04:46;13.50;99.90
6379;DHT22;3222;48.858;10.128;2024-03-02T14:07:13;13.50;99.90
6379;DHT22;3222;48.858;10.128;2024-03-02T14:09:39;13.50;99.90
6379;DHT22;3222;48.858;10.128;2024-03-02T14:12:05;13.50;99.90
6379;DHT22;3222;48.858;10.128;2024-03-02T14:14:31;13.50;99.90
6379;DHT22;3222;48.858;10.128;2024-03-02T14:16:57;13.60;99.90
6379;DHT22;3222;48.858;10.128;2024-03-02T14:19:26;13.60;99.90
6379;DHT22;3222;48.858;10.128;2024-03-02T14:21:52;13.50;99.90
6379;DHT22;3222;48.858;10.128;2024-03-02T14:24:17;13.50;99.90
6379;DHT22;3222;48.858;10.128;2024-03-02T14:26:43;13.60;99.90
6379;DHT22;3222;48.858;10.128;2024-03-02T14:29:09;13.60;99.90
6379;DHT22;3222;48.858;10.128;2024-03-02T14:31:35;13.60;99.90
6379;DHT22;3222;48.858;10.128;2024-03-02T14:34:00;13.60;99.90
6379;DHT22;3222;48.858;10.128;2024-03-02T14:36:27;13.60;99.90
6379;DHT22;3222;48.858;10.128;2024-03-02T14:38:53;13.60;99.90
6379;DHT22;3222;48.858;10.128;2024-03-02T14:41:19;13.70;99.90
6379;DHT22;3222;48.858;10.128;2024-03-02T14:43:45;13.60;99.90
6379;DHT22;3222;48.858;10.128;2024-03-02T14:46:11;13.70;99.90
6379;DHT22;3222;48.858;10.128;2024-03-02T14:48:37;13.60;99.90
6379;DHT22;3222;48.858;10.128;2024-03-02T14:51:03;13.60;99.90
6379;DHT22;3222;48.858;10.128;2024-03-02T14:53:29;13.50;99.90
6379;DHT22;3222;48.858;10.128;2024-03-02T14:55:55;13.60;99.90
6379;DHT22;3222;48.858;10.128;2024-03-02T14:58:21;13.60;99.90
6379;DHT22;3222;48.858;10.128;2024-03-02T15:00:47;13.50;99.90
6379;DHT22;3222;48.858;10.128;2024-03-02T15:03:13;13.40;99.90
6379;DHT22;3222;48.858;10.128;2024-03-02T15:05:39;13.40;99.90
6379;DHT22;3222;48.858;10.128;2024-03-02T15:08:06;13.40;99.90
6379;DHT22;3222;48.858;10.128;2024-03-02T15:10:31;13.40;99.90
6379;DHT22;3222;48.858;10.128;2024-03-02T15:12:57;13.40;99.90
6379;DHT22;3222;48.858;10.128;2024-03-02T15:15:24;13.40;99.90
6379;DHT22;3222;48.858;10.128;2024-03-02T15:17:49;13.40;99.90
6379;DHT22;3222;48.858;10.128;2024-03-02T15:20:16;13.30;99.90
6379;DHT22;3222;48.858;10.128;2024-03-02T15:22:41;13.20;99.90
6379;DHT22;3222;48.858;10.128;2024-03-02T15:25:07;13.20;99.90
6379;DHT22;3222;48.858;10.128;2024-03-02T15:27:33;13.20;99.90
6379;DHT22;3222;48.858;10.128;2024-03-02T15:29:59;13.20;99.90
6379;DHT22;3222;48.858;10.128;2024-03-02T15:32:24;13.20;99.90
6379;DHT22;3222;48.858;10.128;2024-03-02T15:34:52;13.10;99.90
6379;DHT22;3222;48.858;10.128;2024-03-02T15:37:18;13.10;99.90
6379;DHT22;3222;48.858;10.128;2024-03-02T15:39:44;12.90;99.90
6379;DHT22;3222;48.858;10.128;2024-03-02T15:42:10;12.90;99.90
6379;DHT22;3222;48.858;10.128;2024-03-02T15:44:36;12.90;99.90
6379;DHT22;3222;48.858;10.128;2024-03-02T15:47:02;12.80;99.90
6379;DHT22;3222;48.858;10.128;2024-03-02T15:49:28;12.80;99.90
6379;DHT22;3222;48.858;10.128;2024-03-02T15:51:54;12.60;99.90
6379;DHT22;3222;48.858;10.128;2024-03-02T15:54:20;12.60;99.90
6379;DHT22;3222;48.858;10.128;2024-03-02T15:56:46;12.50;99.90
6379;DHT22;3222;48.858;10.128;2024-03-02T15:59:12;12.50;99.90
6379;DHT22;3222;48.858;10.128;2024-03-02T16:01:37;12.50;99.90
6379;DHT22;3222;48.858;10.128;2024-03-02T16:04:03;12.40;99.90
6379;DHT22;3222;48.858;10.128;2024-03-02T16:06:29;12.30;99.90
6379;DHT22;3222;48.858;10.128;2024-03-02T16:08:54;12.30;99.90